Time;durP1;ratioP1;P1;durP2;ratioP2;P2;SDS_P1;SDS_P2;PMS_P1;PMS_P2;Temp;Humidity;BMP_temperature;BMP_pressure;BME280_temperature;BME280_humidity;BME280_pressure;Samples;Min_cycle;Max_cycle;Signal;HPM_P1;HPM_P2
2022/05/29 00:00:08;;;;;;;4.80;2.43;;;;;;;16.07;48.92;97196.47;5051425;28;20961;-71
2022/05/29 00:02:34;;;;;;;6.20;2.70;;;;;;;16.10;49.16;97186.34;5052821;28;20213;-72
2022/05/29 00:04:59;;;;;;;4.23;2.50;;;;;;;16.08;48.66;97191.00;5051867;28;20425;-72
2022/05/29 00:07:25;;;;;;;3.53;2.67;;;;;;;15.95;49.03;97191.66;5052487;28;20593;-72
2022/05/29 00:09:52;;;;;;;6.67;2.80;;;;;;;16.05;49.86;97190.56;5034912;28;20741;-72
2022/05/29 00:12:19;;;;;;;4.20;2.50;;;;;;;16.11;49.43;97185.34;5051109;28;20218;-72
2022/05/29 00:14:45;;;;;;;4.77;2.67;;;;;;;16.05;48.91;97183.44;5051029;28;20421;-72
2022/05/29 00:17:10;;;;;;;3.60;2.33;;;;;;;16.08;48.84;97179.59;5051856;28;20421;-71
2022/05/29 00:19:36;;;;;;;2.90;2.60;;;;;;;16.10;49.17;97174.94;5052132;28;20424;-72
2022/05/29 00:22:02;;;;;;;2.27;2.10;;;;;;;16.13;49.28;97177.22;5052161;28;20207;-72
2022/05/29 00:24:28;;;;;;;4.47;2.60;;;;;;;16.15;48.95;97171.72;5052159;28;20437;-71
2022/05/29 00:26:54;;;;;;;3.83;2.57;;;;;;;16.13;48.98;97175.38;5050802;28;20183;-71
2022/05/29 00:29:20;;;;;;;3.23;2.40;;;;;;;16.17;48.70;97172.38;5050823;28;20249;-72
2022/05/29 00:31:46;;;;;;;3.00;2.03;;;;;;;16.16;48.22;97168.09;5050651;28;20956;-72
2022/05/29 00:34:11;;;;;;;3.47;2.23;;;;;;;16.09;48.63;97165.38;5033692;28;20432;-71
2022/05/29 00:36:41;;;;;;;3.87;2.47;;;;;;;16.11;48.35;97172.13;5038169;28;20691;-71
2022/05/29 00:39:07;;;;;;;5.03;2.00;;;;;;;16.05;48.38;97158.84;5050659;28;20248;-71
2022/05/29 00:41:35;;;;;;;10.73;2.23;;;;;;;15.95;48.94;97164.44;5018642;28;20417;-71
2022/05/29 00:44:12;;;;;;;3.70;2.10;;;;;;;15.94;49.30;97168.09;5051910;28;20433;-71
2022/05/29 00:46:39;;;;;;;3.67;2.17;;;;;;;15.92;48.72;97159.53;5044809;28;20422;-72
2022/05/29 00:49:10;;;;;;;3.37;2.17;;;;;;;16.04;48.08;97165.94;5049800;28;20795;-71
2022/05/29 00:51:43;;;;;;;4.70;2.17;;;;;;;16.07;48.23;97162.94;5049728;28;20433;-72
2022/05/29 00:54:08;;;;;;;6.93;2.00;;;;;;;16.05;47.28;97158.84;5050369;28;20432;-73
2022/05/29 00:56:36;;;;;;;6.10;1.90;;;;;;;15.94;47.05;97160.97;5051482;28;20421;-72
2022/05/29 00:59:02;;;;;;;2.80;1.87;;;;;;;16.01;47.44;97147.00;5057553;28;21104;-72
2022/05/29 01:01:28;;;;;;;4.33;2.20;;;;;;;16.02;47.45;97149.44;5054076;28;20417;-71
2022/05/29 01:03:55;;;;;;;5.23;2.20;;;;;;;16.07;47.64;97147.06;5035633;28;20517;-72
2022/05/29 01:06:21;;;;;;;3.50;1.90;;;;;;;15.99;47.80;97149.84;5051283;28;21012;-72
2022/05/29 01:08:47;;;;;;;5.33;2.00;;;;;;;15.96;47.66;97145.75;5050352;28;21006;-72
2022/05/29 01:11:34;;;;;;;3.40;2.23;;;;;;;15.93;47.26;97142.66;5049858;28;20436;-72
2022/05/29 01:14:06;;;;;;;3.90;1.67;;;;;;;15.97;47.22;97142.09;5051257;28;20269;-71
2022/05/29 01:16:34;;;;;;;3.10;2.17;;;;;;;15.99;46.42;97144.56;5043365;28;20962;-70
2022/05/29 01:19:09;;;;;;;4.20;2.40;;;;;;;15.92;45.78;97144.50;5051237;28;20414;-72
2022/05/29 01:21:50;;;;;;;5.53;2.73;;;;;;;15.95;46.35;97148.59;5052282;28;20508;-72
2022/05/29 01:24:46;;;;;;;2.23;2.03;;;;;;;16.04;45.89;97149.28;5050517;28;20433;-71
2022/05/29 01:27:38;;;;;;;6.40;2.40;;;;;;;15.99;45.47;97141.91;5058639;28;20466;-72
2022/05/29 01:30:22;;;;;;;4.63;2.30;;;;;;;15.97;46.72;97141.28;5047215;28;20468;-71
2022/05/29 01:33:12;;;;;;;5.00;2.10;;;;;;;16.07;47.42;97136.50;5049412;28;20449;-71
2022/05/29 01:36:05;;;;;;;4.70;2.13;;;;;;;16.08;47.71;97130.22;5048758;28;20440;-72
2022/05/29 01:38:39;;;;;;;3.60;2.13;;;;;;;16.00;46.75;97119.78;5043013;28;20458;-72
2022/05/29 01:41:26;;;;;;;3.10;1.90;;;;;;;15.97;46.69;97120.94;5049835;28;20414;-72
2022/05/29 01:43:58;;;;;;;4.17;2.07;;;;;;;15.99;46.09;97118.13;5049884;28;20429;-71
2022/05/29 01:46:30;;;;;;;2.67;2.03;;;;;;;15.97;45.69;97110.38;5049116;28;20455;-71
2022/05/29 01:49:04;;;;;;;3.93;2.10;;;;;;;15.95;45.19;97111.59;5045549;28;20563;-71
2022/05/29 01:51:37;;;;;;;3.47;1.70;;;;;;;15.93;45.67;97106.50;5042772;28;20433;-72
2022/05/29 01:54:13;;;;;;;5.07;2.27;;;;;;;15.87;45.91;97106.44;5049506;28;20825;-71
2022/05/29 01:56:45;;;;;;;2.40;2.00;;;;;;;15.92;46.13;97106.66;5037810;28;20931;-71
2022/05/29 01:59:14;;;;;;;3.80;1.93;;;;;;;15.94;46.77;97099.38;5050302;28;20982;-72
2022/05/29 02:01:46;;;;;;;3.47;1.97;;;;;;;15.97;46.76;97099.00;5048479;28;20484;-71
2022/05/29 02:04:13;;;;;;;5.70;2.00;;;;;;;16.00;47.15;97101.28;5049284;28;20794;-71
2022/05/29 02:09:34;;;;;;;2.63;1.80;;;;;;;15.91;47.28;97099.75;5052599;28;20456;-71
2022/05/29 02:12:00;;;;;;;5.10;1.93;;;;;;;15.91;47.31;97090.00;5052655;28;20459;-71
2022/05/29 02:14:38;;;;;;;5.00;2.03;;;;;;;15.81;46.65;97085.00;5050533;28;20996;-71
2022/05/29 02:17:09;;;;;;;2.87;2.10;;;;;;;15.70;47.27;97082.03;5048978;28;20425;-71
2022/05/29 02:19:45;;;;;;;2.20;2.00;;;;;;;15.75;48.02;97084.94;5049152;28;20418;-71
2022/05/29 02:22:14;;;;;;;3.77;2.10;;;;;;;15.73;47.90;97087.78;5015442;28;20463;-71
2022/05/29 02:24:46;;;;;;;2.30;1.80;;;;;;;15.76;48.08;97082.09;5048402;28;20497;-72
2022/05/29 02:27:21;;;;;;;4.40;2.30;;;;;;;15.69;47.66;97075.13;5048793;28;20877;-71
2022/05/29 02:29:46;;;;;;;2.50;2.30;;;;;;;15.57;47.99;97080.88;5049027;28;20544;-71
2022/05/29 02:32:49;;;;;;;6.77;2.53;;;;;;;15.59;48.76;97075.44;5050440;28;20555;-72
2022/05/29 02:35:29;;;;;;;4.33;2.33;;;;;;;15.47;49.22;97078.56;5054517;28;20175;-72
2022/05/29 02:38:20;;;;;;;3.67;2.30;;;;;;;15.37;50.31;97072.78;5048631;28;20940;-71
2022/05/29 02:40:58;;;;;;;3.10;1.90;;;;;;;15.38;50.38;97069.09;5050070;28;20565;-71
2022/05/29 02:43:36;;;;;;;4.73;2.20;;;;;;;15.43;50.42;97064.09;5049559;28;21205;-72
2022/05/29 02:46:35;;;;;;;2.30;2.00;;;;;;;15.36;49.98;97065.84;5058241;28;20418;-72
2022/05/29 02:49:13;;;;;;;9.63;2.53;;;;;;;15.25;50.33;97068.97;5048778;28;20903;-72
2022/05/29 02:51:43;;;;;;;3.90;2.03;;;;;;;15.26;50.29;97060.84;5043561;28;20417;-72
2022/05/29 02:54:11;;;;;;;3.63;2.00;;;;;;;15.23;49.35;97050.66;5049027;28;20504;-72
2022/05/29 02:56:37;;;;;;;3.57;2.23;;;;;;;15.16;49.32;97047.13;5052801;28;20504;-72
2022/05/29 02:59:03;;;;;;;2.50;2.20;;;;;;;15.13;49.97;97056.22;5051750;28;20551;-72
2022/05/29 03:01:43;;;;;;;3.00;2.40;;;;;;;15.26;49.71;97049.47;5053227;28;20433;-72
2022/05/29 03:04:28;;;;;;;4.00;2.10;;;;;;;15.32;49.58;97048.72;5053529;28;20185;-72
2022/05/29 03:07:12;;;;;;;4.23;2.23;;;;;;;15.34;49.43;97052.81;5050153;28;20504;-72
2022/05/29 03:10:03;;;;;;;2.77;2.53;;;;;;;15.33;49.78;97053.00;5046935;28;20460;-72
2022/05/29 03:13:03;;;;;;;4.77;2.13;;;;;;;15.26;50.73;97049.47;5045383;28;20433;-71
2022/05/29 03:15:47;;;;;;;2.30;1.97;;;;;;;15.06;50.61;97050.06;5055916;28;20470;-71
2022/05/29 03:18:13;;;;;;;5.13;2.30;;;;;;;15.05;51.21;97048.41;5062548;28;20430;-71
2022/05/29 03:20:58;;;;;;;3.57;2.33;;;;;;;15.17;50.99;97040.84;5051968;28;20439;-71
2022/05/29 03:23:35;;;;;;;9.40;2.33;;;;;;;15.08;50.82;97044.59;5050015;28;20215;-71
2022/05/29 03:26:03;;;;;;;2.50;2.17;;;;;;;15.09;49.71;97043.59;5069222;28;20428;-70
2022/05/29 03:28:35;;;;;;;3.30;2.27;;;;;;;14.95;50.48;97046.06;5060596;28;20429;-70
2022/05/29 03:31:04;;;;;;;9.27;2.33;;;;;;;15.02;50.19;97046.16;5052156;28;20930;-71
2022/05/29 03:33:30;;;;;;;3.10;2.47;;;;;;;14.87;50.19;97041.69;5052176;28;20456;-71
2022/05/29 03:35:55;;;;;;;2.80;2.30;;;;;;;14.97;50.60;97046.69;5034632;28;20928;-69
2022/05/29 03:38:22;;;;;;;3.80;2.33;;;;;;;15.05;50.32;97045.78;5052184;28;20179;-70
2022/05/29 03:40:48;;;;;;;5.00;2.60;;;;;;;15.00;49.97;97045.50;5044574;28;20225;-70
2022/05/29 03:43:14;;;;;;;3.70;2.23;;;;;;;15.04;49.95;97041.50;5041959;28;20450;-70
2022/05/29 03:45:39;;;;;;;5.97;2.23;;;;;;;14.97;50.53;97035.34;5033260;28;20453;-70
2022/05/29 03:48:05;;;;;;;9.23;2.73;;;;;;;15.03;50.92;97034.59;5035957;28;20171;-70
2022/05/29 03:50:34;;;;;;;4.73;2.67;;;;;;;15.00;50.60;97041.06;5052392;28;20191;-70
2022/05/29 03:53:00;;;;;;;3.90;2.20;;;;;;;15.08;50.66;97026.13;5048075;28;20450;-70
2022/05/29 03:55:26;;;;;;;3.13;2.20;;;;;;;15.04;49.78;97031.78;5058883;28;21017;-70
2022/05/29 03:57:52;;;;;;;4.57;2.50;;;;;;;15.02;49.76;97030.31;5072032;28;20432;-71
2022/05/29 04:00:19;;;;;;;4.10;2.27;;;;;;;14.94;50.15;97033.88;5057303;28;20183;-71
2022/05/29 04:02:46;;;;;;;5.43;2.73;;;;;;;14.94;50.14;97025.16;5066853;28;20864;-71
2022/05/29 04:05:19;;;;;;;4.13;2.50;;;;;;;14.95;49.93;97030.22;5072233;28;20428;-72
2022/05/29 04:13:14;;;;;;;3.60;2.20;;;;;;;14.88;47.91;97030.16;5072019;28;20441;-71
2022/05/29 04:15:45;;;;;;;3.33;2.00;;;;;;;14.87;47.91;97030.34;5067109;28;20464;-72
2022/05/29 04:18:16;;;;;;;4.97;2.00;;;;;;;14.90;47.69;97030.78;5061268;28;20713;-72
2022/05/29 04:20:42;;;;;;;2.53;1.93;;;;;;;14.95;47.44;97029.44;5072170;28;20447;-72
2022/05/29 04:23:08;;;;;;;3.80;2.13;;;;;;;14.93;46.69;97026.97;5069301;28;20464;-72
2022/05/29 04:25:33;;;;;;;5.30;2.07;;;;;;;14.95;46.58;97030.22;5048288;28;20812;-72
2022/05/29 04:28:01;;;;;;;4.60;2.30;;;;;;;14.99;46.19;97028.06;5067602;28;20594;-71
2022/05/29 04:30:27;;;;;;;3.83;2.10;;;;;;;15.05;46.26;97032.59;5071935;28;20198;-71
2022/05/29 04:33:02;;;;;;;5.50;1.90;;;;;;;15.03;45.82;97031.94;5070996;28;20864;-71
2022/05/29 04:35:29;;;;;;;5.30;1.93;;;;;;;14.99;45.73;97023.59;5056784;28;20490;-72
2022/05/29 04:37:55;;;;;;;4.53;2.40;;;;;;;15.05;45.80;97028.16;5065967;28;20436;-72
2022/05/29 04:40:21;;;;;;;3.13;2.50;;;;;;;15.05;45.46;97032.59;5069429;28;21109;-71
2022/05/29 04:42:46;;;;;;;2.07;1.60;;;;;;;15.03;46.01;97034.59;5047958;28;20207;-70
2022/05/29 04:45:12;;;;;;;4.63;1.90;;;;;;;15.09;45.92;97035.66;5052683;28;20434;-71
2022/05/29 04:47:37;;;;;;;6.73;2.40;;;;;;;15.15;46.08;97037.59;5071397;28;20257;-71
2022/05/29 04:50:03;;;;;;;4.17;2.00;;;;;;;15.13;45.56;97048.31;5067668;28;20199;-71
2022/05/29 04:52:29;;;;;;;5.67;2.10;;;;;;;15.18;46.43;97047.78;5050997;28;20223;-71
2022/05/29 04:54:55;;;;;;;5.97;2.20;;;;;;;15.23;46.23;97041.94;5057883;28;20505;-71
2022/05/29 04:57:20;;;;;;;4.80;2.20;;;;;;;15.29;46.01;97046.47;5070136;28;20190;-70
2022/05/29 04:59:46;;;;;;;4.03;2.07;;;;;;;15.26;45.96;97044.19;5045796;28;20210;-71
2022/05/29 05:02:11;;;;;;;4.70;2.53;;;;;;;15.29;46.35;97043.81;5050210;28;20215;-72
2022/05/29 05:04:37;;;;;;;2.93;2.13;;;;;;;15.23;46.43;97037.47;5071552;28;20220;-72
2022/05/29 05:07:02;;;;;;;4.50;2.20;;;;;;;15.19;46.69;97036.19;5070969;28;20178;-73
2022/05/29 05:09:29;;;;;;;4.40;2.33;;;;;;;15.18;46.73;97031.94;5050964;28;20302;-72
2022/05/29 05:11:55;;;;;;;5.13;2.80;;;;;;;15.23;47.38;97028.75;5066511;28;20343;-72
2022/05/29 05:14:22;;;;;;;5.97;2.13;;;;;;;15.25;46.88;97032.81;5070811;28;21737;-72
2022/05/29 05:16:47;;;;;;;3.53;2.50;;;;;;;15.19;46.43;97031.75;5068996;28;20474;-72
2022/05/29 05:19:14;;;;;;;3.13;2.27;;;;;;;15.27;46.86;97027.34;5050864;28;20425;-72
2022/05/29 05:21:39;;;;;;;5.03;2.23;;;;;;;15.36;46.87;97034.16;5071232;28;20182;-72
2022/05/29 05:24:05;;;;;;;5.57;2.20;;;;;;;15.34;46.69;97030.88;5042158;28;20643;-72
2022/05/29 05:26:31;;;;;;;11.77;2.30;;;;;;;15.35;47.17;97029.88;5050770;28;20676;-72
2022/05/29 05:28:57;;;;;;;6.63;2.80;;;;;;;15.45;46.50;97016.34;5050688;28;20465;-72
2022/05/29 05:31:23;;;;;;;6.97;2.07;;;;;;;15.49;46.73;97023.75;5050086;28;20321;-72
2022/05/29 05:33:48;;;;;;;4.27;2.30;;;;;;;15.57;46.54;97030.69;5050532;28;20217;-71
2022/05/29 05:36:15;;;;;;;3.60;2.40;;;;;;;15.66;46.58;97024.31;5054755;28;20206;-71
2022/05/29 05:38:40;;;;;;;3.40;1.80;;;;;;;15.73;46.55;97027.00;5041455;28;20216;-71
2022/05/29 05:41:09;;;;;;;4.87;2.40;;;;;;;15.74;46.53;97025.16;5066792;28;20502;-72
2022/05/29 05:43:35;;;;;;;4.60;2.47;;;;;;;15.71;46.33;97021.09;5070867;28;20208;-72
2022/05/29 05:46:00;;;;;;;5.57;2.33;;;;;;;15.75;46.77;97018.88;5070805;28;20923;-71
2022/05/29 05:48:29;;;;;;;3.40;2.00;;;;;;;15.82;46.53;97028.50;5067487;28;20257;-71
2022/05/29 05:50:58;;;;;;;5.63;2.13;;;;;;;15.88;46.41;97024.31;5070597;28;20240;-71
2022/05/29 05:53:24;;;;;;;3.33;2.00;;;;;;;15.93;46.82;97024.56;5062262;28;20432;-71
2022/05/29 05:55:49;;;;;;;3.43;2.27;;;;;;;16.04;46.96;97030.34;5065770;28;20421;-71
2022/05/29 05:58:15;;;;;;;4.03;2.10;;;;;;;16.22;46.46;97029.88;5070244;28;20451;-70
2022/05/29 06:00:43;;;;;;;6.83;2.90;;;;;;;16.36;45.94;97026.31;5071066;28;20269;-71
2022/05/29 06:03:08;;;;;;;2.53;2.03;;;;;;;16.40;45.64;97030.19;5062656;28;20241;-71
2022/05/29 06:05:34;;;;;;;3.23;2.17;;;;;;;16.40;44.99;97029.38;5070315;28;20430;-72
2022/05/29 06:07:59;;;;;;;6.10;2.30;;;;;;;16.30;45.19;97032.34;5059810;28;20193;-71
2022/05/29 06:10:25;;;;;;;4.07;2.10;;;;;;;16.31;45.44;97033.97;5070493;28;20244;-71
2022/05/29 06:12:50;;;;;;;4.80;2.40;;;;;;;16.26;45.46;97039.84;5062310;28;20298;-70
2022/05/29 06:15:16;;;;;;;3.93;1.80;;;;;;;16.27;45.51;97035.38;5069712;28;20578;-71
2022/05/29 06:17:41;;;;;;;6.30;2.13;;;;;;;16.25;45.23;97037.41;5070036;28;20194;-72
2022/05/29 06:20:07;;;;;;;3.40;1.90;;;;;;;16.20;45.05;97035.31;5070543;28;20189;-71
2022/05/29 06:22:37;;;;;;;5.73;2.20;;;;;;;16.20;44.88;97040.63;5070518;28;20210;-72
2022/05/29 06:25:03;;;;;;;4.87;2.30;;;;;;;16.24;44.46;97041.06;5077114;28;20435;-71
2022/05/29 06:27:28;;;;;;;4.73;2.20;;;;;;;16.22;44.68;97038.59;5070152;28;20425;-72
2022/05/29 06:29:54;;;;;;;5.80;2.60;;;;;;;16.28;44.60;97045.78;5071183;28;20456;-71
2022/05/29 06:32:20;;;;;;;3.93;1.83;;;;;;;16.34;44.88;97040.72;5074033;28;20213;-71
2022/05/29 06:34:45;;;;;;;2.73;2.20;;;;;;;16.39;44.73;97044.41;5071260;28;20231;-72
2022/05/29 06:37:10;;;;;;;7.50;2.13;;;;;;;16.38;44.30;97045.41;5063684;28;20198;-72
2022/05/29 06:39:37;;;;;;;4.77;2.80;;;;;;;16.39;44.52;97044.41;5058766;28;20179;-71
2022/05/29 06:42:03;;;;;;;5.73;2.20;;;;;;;16.40;44.55;97042.59;5047243;28;20279;-72
2022/05/29 06:44:29;;;;;;;3.60;2.23;;;;;;;16.36;44.23;97049.28;5047628;28;20552;-72
2022/05/29 06:46:54;;;;;;;4.10;2.00;;;;;;;16.40;44.40;97047.88;5047321;28;21200;-72
2022/05/29 06:49:20;;;;;;;4.50;1.67;;;;;;;16.32;44.24;97038.25;5048190;28;20203;-72
2022/05/29 06:51:46;;;;;;;2.33;1.90;;;;;;;16.35;44.20;97043.19;5045950;28;20651;-71
2022/05/29 06:54:11;;;;;;;3.87;2.20;;;;;;;16.34;44.55;97044.19;5046948;28;20186;-71
2022/05/29 06:56:37;;;;;;;4.20;1.43;;;;;;;16.32;44.13;97046.19;5054757;28;20186;-71
2022/05/29 06:59:06;;;;;;;4.63;2.10;;;;;;;16.47;44.77;97045.28;5060759;28;20190;-72
2022/05/29 07:07:02;;;;;;;4.97;2.80;;;;;;;16.96;44.69;97041.72;5063157;28;20426;-71
2022/05/29 07:09:32;;;;;;;3.37;2.17;;;;;;;17.10;44.14;97041.75;5063463;28;20460;-71
2022/05/29 07:12:13;;;;;;;4.60;2.10;;;;;;;17.16;43.43;97046.25;5054970;28;20447;-71
2022/05/29 07:14:41;;;;;;;7.63;2.10;;;;;;;17.23;42.99;97052.41;5059463;28;20515;-71
2022/05/29 07:17:07;;;;;;;4.30;2.00;;;;;;;17.22;42.25;97042.84;5072181;28;20486;-72
2022/05/29 07:19:34;;;;;;;4.30;2.20;;;;;;;17.31;42.10;97054.06;5073889;28;20421;-72
2022/05/29 07:22:00;;;;;;;7.47;1.90;;;;;;;17.47;41.81;97052.88;5072887;28;20448;-72
2022/05/29 07:24:27;;;;;;;4.53;2.10;;;;;;;17.73;41.66;97053.94;5072361;28;20428;-71
2022/05/29 07:26:53;;;;;;;3.17;2.00;;;;;;;17.95;40.97;97046.66;5073028;28;20772;-72
2022/05/29 07:29:20;;;;;;;2.90;1.57;;;;;;;18.18;40.95;97051.56;5071132;28;20474;-72
2022/05/29 07:31:46;;;;;;;2.43;1.70;;;;;;;18.25;39.27;97057.69;5073626;28;20431;-72
2022/05/29 07:34:12;;;;;;;3.43;2.13;;;;;;;18.23;39.31;97054.41;5073064;28;20428;-72
2022/05/29 07:36:38;;;;;;;5.70;2.10;;;;;;;18.16;39.40;97064.19;5055288;28;20202;-72
2022/05/29 07:39:04;;;;;;;5.10;2.20;;;;;;;18.05;39.52;97057.69;5061697;28;20467;-71
2022/05/29 07:44:15;;;;;;;4.80;2.10;;;;;;;18.19;39.98;97044.44;5073113;28;20473;-72
2022/05/29 07:46:40;;;;;;;4.03;1.70;;;;;;;18.25;39.95;97056.84;5072305;28;20459;-72
2022/05/29 07:49:06;;;;;;;5.67;1.70;;;;;;;18.23;39.93;97065.03;5070152;28;20229;-71
2022/05/29 07:51:33;;;;;;;4.47;2.10;;;;;;;18.22;39.80;97062.56;5063740;28;20728;-72
2022/05/29 07:53:58;;;;;;;4.67;1.80;;;;;;;18.26;39.71;97061.97;5064811;28;20439;-72
2022/05/29 07:56:27;;;;;;;3.13;1.90;;;;;;;18.17;39.49;97065.03;5068104;28;20429;-71
2022/05/29 07:58:53;;;;;;;2.73;1.60;;;;;;;18.10;39.19;97070.31;5072090;28;20585;-73
2022/05/29 08:01:19;;;;;;;6.97;2.20;;;;;;;17.97;39.62;97071.13;5072917;28;20514;-71
2022/05/29 08:03:45;;;;;;;3.17;1.53;;;;;;;17.84;39.94;97079.84;5072812;28;20206;-72
2022/05/29 08:06:11;;;;;;;4.03;1.60;;;;;;;17.85;40.20;97072.72;5072382;28;20429;-71
2022/05/29 08:08:37;;;;;;;5.07;1.90;;;;;;;17.77;40.63;97079.00;5059790;28;20460;-71
2022/05/29 08:11:03;;;;;;;4.60;1.90;;;;;;;17.77;41.04;97085.16;5070617;28;20463;-69
2022/05/29 08:13:30;;;;;;;4.50;2.03;;;;;;;17.71;41.37;97085.94;5073903;28;20437;-69
2022/05/29 08:15:56;;;;;;;4.80;2.10;;;;;;;17.57;41.59;97079.81;5072535;28;20178;-70
2022/05/29 08:18:22;;;;;;;7.93;2.17;;;;;;;17.28;42.54;97086.25;5072566;28;20432;-69
2022/05/29 08:20:47;;;;;;;3.63;1.40;;;;;;;17.20;42.26;97080.06;5072589;28;20209;-71
2022/05/29 08:23:13;;;;;;;6.77;2.07;;;;;;;17.13;42.42;97081.91;5072505;28;20449;-70
2022/05/29 08:31:06;;;;;;;5.90;2.27;;;;;;;17.11;43.58;97083.13;5071739;28;20460;-70
2022/05/29 08:33:34;;;;;;;7.57;2.23;;;;;;;17.12;43.76;97088.19;5071982;28;20455;-70
2022/05/29 08:36:02;;;;;;;3.53;2.20;;;;;;;17.09;43.72;97085.13;5065613;28;20814;-70
2022/05/29 08:38:29;;;;;;;4.57;2.00;;;;;;;17.07;43.83;97089.81;5064333;28;20943;-70
2022/05/29 08:40:57;;;;;;;3.67;1.97;;;;;;;17.06;43.80;97088.16;5069667;28;20420;-70
2022/05/29 08:43:32;;;;;;;4.33;2.10;;;;;;;16.95;44.00;97095.66;5069656;28;20452;-70
2022/05/29 08:46:02;;;;;;;6.43;2.20;;;;;;;16.88;44.83;97097.44;5070665;28;20812;-70
2022/05/29 08:48:28;;;;;;;7.33;2.57;;;;;;;16.82;45.01;97101.66;5053346;28;20453;-69
2022/05/29 08:51:18;;;;;;;6.70;2.27;;;;;;;16.84;44.72;97101.47;5053714;28;20547;-69
2022/05/29 08:53:59;;;;;;;5.13;2.40;;;;;;;16.72;44.80;97096.72;5063361;28;20214;-70
2022/05/29 08:56:29;;;;;;;3.53;2.00;;;;;;;16.65;45.12;97095.03;5066371;28;20427;-70
2022/05/29 08:59:10;;;;;;;6.43;2.20;;;;;;;16.71;45.46;97102.19;5071768;28;20907;-69
2022/05/29 09:01:55;;;;;;;6.87;2.13;;;;;;;16.67;45.30;97095.69;5070786;28;20431;-70
2022/05/29 09:04:32;;;;;;;5.93;2.10;;;;;;;16.69;45.44;97097.09;5057283;28;20447;-71
2022/05/29 09:06:59;;;;;;;4.47;2.23;;;;;;;16.74;46.05;97096.53;5058792;28;20485;-71
2022/05/29 09:09:31;;;;;;;4.87;2.20;;;;;;;16.85;45.87;97095.97;5062467;28;20460;-70
2022/05/29 09:11:59;;;;;;;7.00;1.83;;;;;;;16.84;45.74;97096.19;5063126;28;20536;-70
2022/05/29 09:14:47;;;;;;;7.07;2.10;;;;;;;16.80;45.12;97092.28;5061424;28;20468;-71
2022/05/29 09:17:29;;;;;;;4.13;2.30;;;;;;;16.72;45.29;97091.44;5071143;28;20432;-70
2022/05/29 09:20:01;;;;;;;9.03;2.47;;;;;;;16.78;45.82;97091.66;5062493;28;20456;-70
2022/05/29 09:22:33;;;;;;;4.40;2.40;;;;;;;16.85;45.75;97087.22;5071263;28;20810;-70
2022/05/29 09:25:04;;;;;;;5.03;2.37;;;;;;;16.92;46.03;97077.47;5070098;28;20623;-70
2022/05/29 09:27:31;;;;;;;4.07;1.50;;;;;;;17.04;45.69;97075.94;5071397;28;20508;-71
2022/05/29 09:29:57;;;;;;;5.93;1.97;;;;;;;17.16;44.31;97076.22;5061634;28;20472;-70
2022/05/29 09:32:28;;;;;;;3.20;1.63;;;;;;;17.39;43.90;97090.16;5070835;28;20441;-69
2022/05/29 09:35:14;;;;;;;4.77;2.00;;;;;;;17.65;44.15;97074.31;5053919;28;20198;-70
2022/05/29 09:37:44;;;;;;;4.83;1.80;;;;;;;17.88;42.66;97072.31;5051074;28;20452;-70
2022/05/29 09:40:16;;;;;;;4.93;1.60;;;;;;;18.06;41.52;97071.75;5065160;28;21001;-70
2022/05/29 09:42:43;;;;;;;3.90;1.70;;;;;;;18.28;40.15;97067.06;5070857;28;20448;-70
2022/05/29 09:45:19;;;;;;;3.63;1.70;;;;;;;18.63;39.92;97080.06;5070564;28;20436;-71
2022/05/29 09:50:49;;;;;;;2.47;1.63;;;;;;;18.95;38.01;97076.78;5044795;28;20472;-72
2022/05/29 09:53:20;;;;;;;3.63;1.80;;;;;;;18.94;38.11;97075.97;5044655;28;20433;-70
2022/05/29 09:55:49;;;;;;;5.67;1.80;;;;;;;18.85;37.18;97072.69;5054081;28;20454;-71
2022/05/29 09:58:20;;;;;;;8.43;2.20;;;;;;;18.85;36.76;97066.53;5061466;28;20431;-71
2022/05/29 10:01:06;;;;;;;3.80;1.57;;;;;;;19.14;37.12;97067.94;5069622;28;20823;-71
2022/05/29 10:03:50;;;;;;;6.40;1.97;;;;;;;19.19;35.54;97069.94;5052740;28;20914;-70
2022/05/29 10:06:22;;;;;;;3.47;1.50;;;;;;;19.19;35.97;97068.09;5069884;28;20428;-71
2022/05/29 10:08:48;;;;;;;3.43;1.83;;;;;;;19.14;36.98;97070.59;5056503;28;20440;-71
2022/05/29 10:11:20;;;;;;;4.80;1.50;;;;;;;18.96;35.20;97078.41;5073188;28;20514;-71
2022/05/29 10:13:45;;;;;;;4.93;1.57;;;;;;;18.81;35.32;97084.72;5067127;28;20532;-70
2022/05/29 10:16:12;;;;;;;4.30;1.50;;;;;;;18.76;36.25;97083.72;5060620;28;20507;-71
2022/05/29 10:18:40;;;;;;;7.33;1.40;;;;;;;18.65;36.80;97071.94;5063808;28;20270;-71
2022/05/29 10:21:14;;;;;;;2.07;1.10;;;;;;;18.58;37.13;97082.56;5067608;28;20421;-70
2022/05/29 10:23:40;;;;;;;3.53;1.80;;;;;;;18.47;38.32;97080.50;5069384;28;20610;-70
2022/05/29 10:26:15;;;;;;;7.17;2.33;;;;;;;18.36;38.87;97079.31;5069950;28;20493;-70
2022/05/29 10:28:41;;;;;;;3.33;1.83;;;;;;;18.26;39.58;97092.97;5070209;28;20427;-70
2022/05/29 10:31:24;;;;;;;5.00;2.00;;;;;;;18.16;39.75;97093.38;5068835;28;20517;-71
2022/05/29 10:34:25;;;;;;;6.53;1.97;;;;;;;18.08;41.03;97098.88;5068416;28;20541;-71
2022/05/29 10:36:51;;;;;;;6.80;2.30;;;;;;;17.84;41.89;97103.72;5054318;28;20457;-70
2022/05/29 10:39:28;;;;;;;3.83;1.87;;;;;;;17.60;42.45;97097.13;5062086;28;20437;-70
2022/05/29 10:41:55;;;;;;;3.20;1.60;;;;;;;17.32;42.67;97106.81;5055721;28;20210;-70
2022/05/29 10:44:42;;;;;;;8.60;2.30;;;;;;;17.18;43.39;97110.44;5064794;28;20421;-71
2022/05/29 10:47:25;;;;;;;2.30;1.70;;;;;;;17.18;43.52;97110.44;5050034;28;20862;-71
2022/05/29 10:50:03;;;;;;;4.57;1.90;;;;;;;17.16;43.50;97112.44;5067791;28;20464;-70
2022/05/29 10:52:46;;;;;;;4.40;1.90;;;;;;;17.11;43.44;97109.59;5069310;28;20476;-70
2022/05/29 10:55:21;;;;;;;4.87;2.13;;;;;;;17.16;43.70;97104.50;5061912;28;20413;-70
2022/05/29 10:57:46;;;;;;;3.97;1.80;;;;;;;17.20;43.59;97097.81;5068617;28;20484;-70
2022/05/29 11:00:19;;;;;;;2.93;1.50;;;;;;;17.28;44.50;97104.78;5058565;28;20505;-70
2022/05/29 11:03:19;;;;;;;4.77;1.50;;;;;;;17.40;44.28;97103.19;5069331;28;20214;-70
2022/05/29 11:06:09;;;;;;;3.97;1.70;;;;;;;17.54;43.74;97109.34;5069978;28;20444;-70
2022/05/29 11:08:50;;;;;;;3.40;1.80;;;;;;;17.66;43.56;97102.44;5062393;28;20424;-70
2022/05/29 11:11:38;;;;;;;5.73;1.80;;;;;;;17.77;43.01;97109.00;5061162;28;20431;-72
2022/05/29 11:14:33;;;;;;;5.73;1.37;;;;;;;17.92;42.88;97098.22;5069612;28;20779;-72
2022/05/29 11:17:17;;;;;;;2.50;1.13;;;;;;;18.09;42.37;97095.22;5063505;28;20436;-70
2022/05/29 11:20:01;;;;;;;1.70;1.13;;;;;;;18.39;40.53;97094.81;5073556;28;20443;-71
2022/05/29 11:22:57;;;;;;;3.73;1.37;;;;;;;18.60;40.25;97085.78;5072903;28;20432;-71
2022/05/29 11:25:48;;;;;;;5.43;1.30;;;;;;;18.78;40.07;97076.38;5072395;28;20911;-72
2022/05/29 11:28:14;;;;;;;1.53;1.00;;;;;;;18.73;38.25;97090.28;5066648;28;20436;-72
2022/05/29 11:31:04;;;;;;;4.53;1.40;;;;;;;18.75;38.86;97082.09;5073363;28;20547;-72
2022/05/29 11:34:02;;;;;;;1.30;1.00;;;;;;;18.82;39.61;97083.72;5060647;28;20241;-72
2022/05/29 11:36:31;;;;;;;1.83;0.97;;;;;;;18.86;39.21;97081.44;5068148;28;20498;-72
2022/05/29 11:39:22;;;;;;;1.80;1.30;;;;;;;18.83;38.32;97074.72;5059673;28;20462;-72
2022/05/29 11:41:55;;;;;;;4.23;1.47;;;;;;;18.96;38.28;97067.78;5069355;28;20924;-72
2022/05/29 11:44:31;;;;;;;2.27;1.27;;;;;;;19.12;37.53;97062.00;5073077;28;20794;-73
2022/05/29 11:52:50;;;;;;;2.60;1.23;;;;;;;19.56;35.97;97050.75;5054147;28;20674;-73
2022/05/29 11:55:23;;;;;;;3.70;1.30;;;;;;;19.83;36.27;97053.22;5065306;28;20423;-72
2022/05/29 11:57:57;;;;;;;2.97;1.10;;;;;;;19.98;34.42;97048.47;5070825;28;20424;-73
2022/05/29 12:00:38;;;;;;;3.67;1.30;;;;;;;19.84;34.29;97052.22;5072970;28;20431;-73
2022/05/29 12:03:30;;;;;;;1.10;0.83;;;;;;;19.41;34.18;97054.50;5072430;28;20867;-72
2022/05/29 12:06:15;;;;;;;2.20;1.00;;;;;;;19.22;34.81;97053.56;5064709;28;20456;-72
2022/05/29 12:09:09;;;;;;;2.70;1.00;;;;;;;19.08;35.24;97049.38;5060659;28;20441;-72
2022/05/29 12:11:40;;;;;;;2.07;1.30;;;;;;;19.06;36.18;97052.22;5055175;28;20433;-72
2022/05/29 12:14:08;;;;;;;2.00;1.30;;;;;;;19.28;36.08;97052.75;5071231;28;20601;-72
2022/05/29 12:16:37;;;;;;;6.60;1.60;;;;;;;19.35;34.51;97050.06;5070734;28;20428;-72
2022/05/29 12:19:09;;;;;;;2.50;1.33;;;;;;;19.33;34.68;97041.47;5070720;28;20858;-72
2022/05/29 12:21:39;;;;;;;3.33;1.10;;;;;;;19.59;34.89;97039.69;5071133;28;20952;-73
2022/05/29 12:24:09;;;;;;;2.63;1.60;;;;;;;19.88;34.83;97027.66;5053577;28;20430;-72